sensor_id;sensor_type;location;lat;lon;timestamp;temperature;humidity
26035;DHT22;13809;48.632;11.576;2023-07-29T00:03:06;21.60;48.60
26035;DHT22;13809;48.632;11.576;2023-07-29T00:08:10;21.50;49.30
26035;DHT22;13809;48.632;11.576;2023-07-29T00:13:13;21.50;48.90
26035;DHT22;13809;48.632;11.576;2023-07-29T00:18:18;21.50;48.90
26035;DHT22;13809;48.632;11.576;2023-07-29T00:23:21;21.50;49.40
26035;DHT22;13809;48.632;11.576;2023-07-29T00:28:24;21.50;48.90
26035;DHT22;13809;48.632;11.576;2023-07-29T00:33:29;21.60;48.90
26035;DHT22;13809;48.632;11.576;2023-07-29T00:38:32;21.60;49.50
26035;DHT22;13809;48.632;11.576;2023-07-29T00:43:35;21.60;48.90
26035;DHT22;13809;48.632;11.576;2023-07-29T00:48:40;21.60;48.80
26035;DHT22;13809;48.632;11.576;2023-07-29T00:53:43;21.60;49.40
26035;DHT22;13809;48.632;11.576;2023-07-29T00:58:47;21.60;48.90
26035;DHT22;13809;48.632;11.576;2023-07-29T01:03:51;21.60;48.90
26035;DHT22;13809;48.632;11.576;2023-07-29T01:09:01;21.60;49.10
26035;DHT22;13809;48.632;11.576;2023-07-29T01:14:12;21.50;49.80
26035;DHT22;13809;48.632;11.576;2023-07-29T01:19:42;21.50;49.40
26035;DHT22;13809;48.632;11.576;2023-07-29T01:24:49;21.60;49.10
26035;DHT22;13809;48.632;11.576;2023-07-29T01:29:53;21.60;48.60
26035;DHT22;13809;48.632;11.576;2023-07-29T01:35:00;21.70;48.30
26035;DHT22;13809;48.632;11.576;2023-07-29T01:40:09;21.70;48.60
26035;DHT22;13809;48.632;11.576;2023-07-29T01:45:13;21.70;48.00
26035;DHT22;13809;48.632;11.576;2023-07-29T01:50:16;21.70;47.60
26035;DHT22;13809;48.632;11.576;2023-07-29T01:55:21;21.70;47.50
26035;DHT22;13809;48.632;11.576;2023-07-29T02:00:24;21.60;47.50
26035;DHT22;13809;48.632;11.576;2023-07-29T02:05:27;21.60;47.50
26035;DHT22;13809;48.632;11.576;2023-07-29T02:10:32;21.50;47.30
26035;DHT22;13809;48.632;11.576;2023-07-29T02:15:46;21.30;47.70
26035;DHT22;13809;48.632;11.576;2023-07-29T02:20:49;21.30;47.60
26035;DHT22;13809;48.632;11.576;2023-07-29T02:25:54;21.30;47.60
26035;DHT22;13809;48.632;11.576;2023-07-29T02:31:11;21.20;47.70
26035;DHT22;13809;48.632;11.576;2023-07-29T02:36:15;21.20;47.60
26035;DHT22;13809;48.632;11.576;2023-07-29T02:41:20;21.20;47.30
26035;DHT22;13809;48.632;11.576;2023-07-29T02:46:23;21.20;47.30
26035;DHT22;13809;48.632;11.576;2023-07-29T02:51:26;21.20;47.20
26035;DHT22;13809;48.632;11.576;2023-07-29T02:56:31;21.20;47.30
26035;DHT22;13809;48.632;11.576;2023-07-29T03:01:34;21.10;47.10
26035;DHT22;13809;48.632;11.576;2023-07-29T03:06:38;21.10;47.20
26035;DHT22;13809;48.632;11.576;2023-07-29T03:11:42;21.10;47.10
26035;DHT22;13809;48.632;11.576;2023-07-29T03:16:46;21.10;47.40
26035;DHT22;13809;48.632;11.576;2023-07-29T03:21:49;21.00;47.20
26035;DHT22;13809;48.632;11.576;2023-07-29T03:26:54;21.00;47.20
26035;DHT22;13809;48.632;11.576;2023-07-29T03:31:57;21.00;47.30
26035;DHT22;13809;48.632;11.576;2023-07-29T03:37:00;21.00;47.20
26035;DHT22;13809;48.632;11.576;2023-07-29T03:42:05;21.00;47.30
26035;DHT22;13809;48.632;11.576;2023-07-29T03:47:08;21.00;47.70
26035;DHT22;13809;48.632;11.576;2023-07-29T03:52:12;20.90;47.40
26035;DHT22;13809;48.632;11.576;2023-07-29T03:57:16;20.90;47.30
26035;DHT22;13809;48.632;11.576;2023-07-29T04:02:20;20.90;47.80
26035;DHT22;13809;48.632;11.576;2023-07-29T04:07:23;20.90;47.60
26035;DHT22;13809;48.632;11.576;2023-07-29T04:12:28;20.90;47.80
26035;DHT22;13809;48.632;11.576;2023-07-29T04:17:31;20.90;48.10
26035;DHT22;13809;48.632;11.576;2023-07-29T04:22:34;20.90;47.90
26035;DHT22;13809;48.632;11.576;2023-07-29T04:27:39;20.90;48.00
26035;DHT22;13809;48.632;11.576;2023-07-29T04:32:42;20.90;48.30
26035;DHT22;13809;48.632;11.576;2023-07-29T04:37:47;20.90;48.10
26035;DHT22;13809;48.632;11.576;2023-07-29T04:42:51;20.90;48.20
26035;DHT22;13809;48.632;11.576;2023-07-29T04:47:54;20.90;48.40
26035;DHT22;13809;48.632;11.576;2023-07-29T04:53:00;20.90;48.10
26035;DHT22;13809;48.632;11.576;2023-07-29T04:58:05;20.90;48.20
26035;DHT22;13809;48.632;11.576;2023-07-29T05:03:09;20.90;48.70
26035;DHT22;13809;48.632;11.576;2023-07-29T05:08:12;20.80;48.40
26035;DHT22;13809;48.632;11.576;2023-07-29T05:13:16;20.80;48.80
26035;DHT22;13809;48.632;11.576;2023-07-29T05:18:20;20.80;49.40
26035;DHT22;13809;48.632;11.576;2023-07-29T05:23:23;20.80;49.40
26035;DHT22;13809;48.632;11.576;2023-07-29T05:28:28;20.80;49.50
26035;DHT22;13809;48.632;11.576;2023-07-29T05:33:31;20.90;49.90
26035;DHT22;13809;48.632;11.576;2023-07-29T05:38:34;20.90;49.80
26035;DHT22;13809;48.632;11.576;2023-07-29T05:43:39;20.90;50.30
26035;DHT22;13809;48.632;11.576;2023-07-29T05:48:44;21.00;51.20
26035;DHT22;13809;48.632;11.576;2023-07-29T05:53:47;21.10;50.80
26035;DHT22;13809;48.632;11.576;2023-07-29T05:58:52;21.10;51.00
26035;DHT22;13809;48.632;11.576;2023-07-29T06:03:55;21.20;51.70
26035;DHT22;13809;48.632;11.576;2023-07-29T06:08:58;21.30;51.40
26035;DHT22;13809;48.632;11.576;2023-07-29T06:14:03;21.40;51.50
26035;DHT22;13809;48.632;11.576;2023-07-29T06:19:06;21.50;52.20
26035;DHT22;13809;48.632;11.576;2023-07-29T06:24:10;21.50;51.50
26035;DHT22;13809;48.632;11.576;2023-07-29T06:29:15;21.60;51.70
26035;DHT22;13809;48.632;11.576;2023-07-29T06:34:18;21.60;51.70
26035;DHT22;13809;48.632;11.576;2023-07-29T06:39:21;21.70;51.20
26035;DHT22;13809;48.632;11.576;2023-07-29T06:44:26;21.70;51.40
26035;DHT22;13809;48.632;11.576;2023-07-29T06:49:29;21.70;51.70
26035;DHT22;13809;48.632;11.576;2023-07-29T06:54:32;21.70;51.20
26035;DHT22;13809;48.632;11.576;2023-07-29T06:59:37;21.70;51.30
26035;DHT22;13809;48.632;11.576;2023-07-29T07:04:40;21.60;51.60
26035;DHT22;13809;48.632;11.576;2023-07-29T07:09:44;21.70;51.50
26035;DHT22;13809;48.632;11.576;2023-07-29T07:14:48;21.70;51.90
26035;DHT22;13809;48.632;11.576;2023-07-29T07:19:52;21.70;52.50
26035;DHT22;13809;48.632;11.576;2023-07-29T07:24:55;21.70;52.20
26035;DHT22;13809;48.632;11.576;2023-07-29T07:29:59;21.70;52.40
26035;DHT22;13809;48.632;11.576;2023-07-29T07:35:03;21.80;52.50
26035;DHT22;13809;48.632;11.576;2023-07-29T07:40:07;21.80;52.30
26035;DHT22;13809;48.632;11.576;2023-07-29T07:45:11;21.80;52.60
26035;DHT22;13809;48.632;11.576;2023-07-29T07:50:15;21.80;53.30
26035;DHT22;13809;48.632;11.576;2023-07-29T07:55:18;21.90;53.20
26035;DHT22;13809;48.632;11.576;2023-07-29T08:00:22;21.90;53.80
26035;DHT22;13809;48.632;11.576;2023-07-29T08:05:26;22.10;54.70
26035;DHT22;13809;48.632;11.576;2023-07-29T08:10:29;22.20;53.40
26035;DHT22;13809;48.632;11.576;2023-07-29T08:15:33;22.30;53.30
26035;DHT22;13809;48.632;11.576;2023-07-29T08:20:37;22.30;53.60
26035;DHT22;13809;48.632;11.576;2023-07-29T08:25:40;22.40;52.40
26035;DHT22;13809;48.632;11.576;2023-07-29T08:30:45;22.30;52.50
26035;DHT22;13809;48.632;11.576;2023-07-29T08:35:49;22.30;53.80
26035;DHT22;13809;48.632;11.576;2023-07-29T08:40:59;22.30;53.80
26035;DHT22;13809;48.632;11.576;2023-07-29T08:46:06;22.40;53.80
26035;DHT22;13809;48.632;11.576;2023-07-29T08:51:11;22.50;54.20
26035;DHT22;13809;48.632;11.576;2023-07-29T08:56:15;22.60;53.70
26035;DHT22;13809;48.632;11.576;2023-07-29T09:01:20;22.80;53.70
26035;DHT22;13809;48.632;11.576;2023-07-29T09:06:24;22.90;53.40
26035;DHT22;13809;48.632;11.576;2023-07-29T09:11:29;23.00;53.50
26035;DHT22;13809;48.632;11.576;2023-07-29T09:16:34;23.10;53.60
26035;DHT22;13809;48.632;11.576;2023-07-29T09:21:39;23.30;53.80
26035;DHT22;13809;48.632;11.576;2023-07-29T09:26:48;23.40;53.00
26035;DHT22;13809;48.632;11.576;2023-07-29T09:31:53;23.50;53.20
26035;DHT22;13809;48.632;11.576;2023-07-29T09:36:56;23.60;53.10
26035;DHT22;13809;48.632;11.576;2023-07-29T09:42:00;23.70;53.30
26035;DHT22;13809;48.632;11.576;2023-07-29T09:47:05;23.90;53.00
26035;DHT22;13809;48.632;11.576;2023-07-29T09:52:08;24.00;52.60
26035;DHT22;13809;48.632;11.576;2023-07-29T09:57:14;24.10;52.30
26035;DHT22;13809;48.632;11.576;2023-07-29T10:02:19;24.30;52.50
26035;DHT22;13809;48.632;11.576;2023-07-29T10:07:24;24.40;52.60
26035;DHT22;13809;48.632;11.576;2023-07-29T10:12:29;24.50;52.70
26035;DHT22;13809;48.632;11.576;2023-07-29T10:17:36;24.70;51.40
26035;DHT22;13809;48.632;11.576;2023-07-29T10:22:42;24.90;51.50
26035;DHT22;13809;48.632;11.576;2023-07-29T10:27:49;25.00;51.30
26035;DHT22;13809;48.632;11.576;2023-07-29T10:32:54;25.10;51.10
26035;DHT22;13809;48.632;11.576;2023-07-29T10:38:02;25.20;50.10
26035;DHT22;13809;48.632;11.576;2023-07-29T10:43:10;25.20;50.20
26035;DHT22;13809;48.632;11.576;2023-07-29T10:48:41;25.30;49.80
26035;DHT22;13809;48.632;11.576;2023-07-29T10:53:45;25.30;50.50
26035;DHT22;13809;48.632;11.576;2023-07-29T10:58:48;25.40;50.40
26035;DHT22;13809;48.632;11.576;2023-07-29T11:04:22;25.50;50.10
26035;DHT22;13809;48.632;11.576;2023-07-29T11:09:39;25.60;49.10
26035;DHT22;13809;48.632;11.576;2023-07-29T11:14:43;25.60;48.70
26035;DHT22;13809;48.632;11.576;2023-07-29T11:19:48;25.70;49.60
26035;DHT22;13809;48.632;11.576;2023-07-29T11:24:52;25.80;49.10
26035;DHT22;13809;48.632;11.576;2023-07-29T11:29:57;26.00;49.10
26035;DHT22;13809;48.632;11.576;2023-07-29T11:35:06;26.20;48.70
26035;DHT22;13809;48.632;11.576;2023-07-29T11:40:13;26.30;45.80
26035;DHT22;13809;48.632;11.576;2023-07-29T11:45:17;26.40;46.60
26035;DHT22;13809;48.632;11.576;2023-07-29T11:50:22;26.40;47.50
26035;DHT22;13809;48.632;11.576;2023-07-29T11:55:26;26.50;47.00
26035;DHT22;13809;48.632;11.576;2023-07-29T12:00:29;26.60;47.00
26035;DHT22;13809;48.632;11.576;2023-07-29T12:05:34;26.70;46.80
26035;DHT22;13809;48.632;11.576;2023-07-29T12:10:37;27.00;45.90
26035;DHT22;13809;48.632;11.576;2023-07-29T12:15:41;27.10;45.80
26035;DHT22;13809;48.632;11.576;2023-07-29T12:20:46;27.20;44.90
26035;DHT22;13809;48.632;11.576;2023-07-29T12:25:50;27.30;43.10
26035;DHT22;13809;48.632;11.576;2023-07-29T12:30:55;27.30;44.30
26035;DHT22;13809;48.632;11.576;2023-07-29T12:36:00;27.30;44.30
26035;DHT22;13809;48.632;11.576;2023-07-29T12:41:03;27.30;43.60
26035;DHT22;13809;48.632;11.576;2023-07-29T12:46:06;27.30;43.60
26035;DHT22;13809;48.632;11.576;2023-07-29T12:51:11;27.30;42.60
26035;DHT22;13809;48.632;11.576;2023-07-29T12:56:14;27.20;42.40
26035;DHT22;13809;48.632;11.576;2023-07-29T13:01:18;27.00;43.80
26035;DHT22;13809;48.632;11.576;2023-07-29T13:06:23;26.80;44.80
26035;DHT22;13809;48.632;11.576;2023-07-29T13:11:26;26.70;44.50
26035;DHT22;13809;48.632;11.576;2023-07-29T13:16:29;26.60;44.80
26035;DHT22;13809;48.632;11.576;2023-07-29T13:21:34;26.50;44.10
26035;DHT22;13809;48.632;11.576;2023-07-29T13:26:37;26.50;43.90
26035;DHT22;13809;48.632;11.576;2023-07-29T13:31:40;26.40;44.10
26035;DHT22;13809;48.632;11.576;2023-07-29T13:36:45;26.40;43.30
26035;DHT22;13809;48.632;11.576;2023-07-29T13:41:48;26.30;42.80
26035;DHT22;13809;48.632;11.576;2023-07-29T13:46:52;26.30;43.70
26035;DHT22;13809;48.632;11.576;2023-07-29T13:51:56;26.30;43.60
26035;DHT22;13809;48.632;11.576;2023-07-29T13:57:00;26.20;42.90
26035;DHT22;13809;48.632;11.576;2023-07-29T14:02:03;26.10;43.60
26035;DHT22;13809;48.632;11.576;2023-07-29T14:07:08;26.10;42.70
26035;DHT22;13809;48.632;11.576;2023-07-29T14:12:12;26.00;43.10
26035;DHT22;13809;48.632;11.576;2023-07-29T14:17:16;26.00;43.50
26035;DHT22;13809;48.632;11.576;2023-07-29T14:22:21;26.10;43.90
26035;DHT22;13809;48.632;11.576;2023-07-29T14:27:24;26.10;43.30
26035;DHT22;13809;48.632;11.576;2023-07-29T14:32:27;26.00;43.90
26035;DHT22;13809;48.632;11.576;2023-07-29T14:37:32;26.00;43.90
26035;DHT22;13809;48.632;11.576;2023-07-29T14:42:35;26.10;43.70
26035;DHT22;13809;48.632;11.576;2023-07-29T14:47:38;26.10;44.30
26035;DHT22;13809;48.632;11.576;2023-07-29T14:52:43;26.10;43.20
26035;DHT22;13809;48.632;11.576;2023-07-29T14:57:46;26.30;43.20
26035;DHT22;13809;48.632;11.576;2023-07-29T15:02:49;26.40;42.90
26035;DHT22;13809;48.632;11.576;2023-07-29T15:07:54;26.50;41.90
26035;DHT22;13809;48.632;11.576;2023-07-29T15:12:57;26.60;41.00
26035;DHT22;13809;48.632;11.576;2023-07-29T15:18:00;26.80;42.00
26035;DHT22;13809;48.632;11.576;2023-07-29T15:23:05;26.90;42.20
26035;DHT22;13809;48.632;11.576;2023-07-29T15:28:08;27.00;40.80
26035;DHT22;13809;48.632;11.576;2023-07-29T15:33:12;27.00;40.80
26035;DHT22;13809;48.632;11.576;2023-07-29T15:38:16;27.00;40.80
26035;DHT22;13809;48.632;11.576;2023-07-29T15:43:20;26.90;39.80
26035;DHT22;13809;48.632;11.576;2023-07-29T15:48:23;26.80;40.80
26035;DHT22;13809;48.632;11.576;2023-07-29T15:53:28;26.90;41.40
26035;DHT22;13809;48.632;11.576;2023-07-29T15:58:31;26.90;40.30
26035;DHT22;13809;48.632;11.576;2023-07-29T16:03:34;27.00;40.80
26035;DHT22;13809;48.632;11.576;2023-07-29T16:08:39;26.90;40.30
26035;DHT22;13809;48.632;11.576;2023-07-29T16:13:43;26.60;39.70
26035;DHT22;13809;48.632;11.576;2023-07-29T16:18:46;26.40;41.20
26035;DHT22;13809;48.632;11.576;2023-07-29T16:23:50;26.20;41.00
26035;DHT22;13809;48.632;11.576;2023-07-29T16:28:54;26.10;40.80
26035;DHT22;13809;48.632;11.576;2023-07-29T16:33:57;25.90;41.50
26035;DHT22;13809;48.632;11.576;2023-07-29T16:39:02;25.90;41.50
26035;DHT22;13809;48.632;11.576;2023-07-29T16:44:06;25.90;40.50
26035;DHT22;13809;48.632;11.576;2023-07-29T16:49:09;25.80;40.70
26035;DHT22;13809;48.632;11.576;2023-07-29T16:54:24;25.70;40.90
26035;DHT22;13809;48.632;11.576;2023-07-29T16:59:27;25.50;40.60
26035;DHT22;13809;48.632;11.576;2023-07-29T17:04:30;25.40;41.20
26035;DHT22;13809;48.632;11.576;2023-07-29T17:09:34;25.30;41.10
26035;DHT22;13809;48.632;11.576;2023-07-29T17:14:38;25.10;41.00
26035;DHT22;13809;48.632;11.576;2023-07-29T17:19:41;25.00;40.90
26035;DHT22;13809;48.632;11.576;2023-07-29T17:24:47;24.90;41.20
26035;DHT22;13809;48.632;11.576;2023-07-29T17:29:51;24.80;41.60
26035;DHT22;13809;48.632;11.576;2023-07-29T17:34:54;24.70;42.10
26035;DHT22;13809;48.632;11.576;2023-07-29T17:39:58;24.50;42.20
26035;DHT22;13809;48.632;11.576;2023-07-29T17:45:02;24.40;42.90
26035;DHT22;13809;48.632;11.576;2023-07-29T17:50:06;24.30;42.90
26035;DHT22;13809;48.632;11.576;2023-07-29T17:55:11;24.10;43.20
26035;DHT22;13809;48.632;11.576;2023-07-29T18:00:14;23.90;43.70
26035;DHT22;13809;48.632;11.576;2023-07-29T18:05:17;23.80;43.90
26035;DHT22;13809;48.632;11.576;2023-07-29T18:10:21;23.60;43.90
26035;DHT22;13809;48.632;11.576;2023-07-29T18:15:25;23.50;44.30
26035;DHT22;13809;48.632;11.576;2023-07-29T18:20:29;23.40;44.10
26035;DHT22;13809;48.632;11.576;2023-07-29T18:25:34;23.40;44.20
26035;DHT22;13809;48.632;11.576;2023-07-29T18:30:37;23.40;44.50
26035;DHT22;13809;48.632;11.576;2023-07-29T18:35:40;23.40;44.10
26035;DHT22;13809;48.632;11.576;2023-07-29T18:40:45;23.40;44.20
26035;DHT22;13809;48.632;11.576;2023-07-29T18:45:48;23.40;44.30
26035;DHT22;13809;48.632;11.576;2023-07-29T18:50:52;23.40;44.10
26035;DHT22;13809;48.632;11.576;2023-07-29T18:55:56;23.30;44.10
26035;DHT22;13809;48.632;11.576;2023-07-29T19:00:59;23.30;44.30
26035;DHT22;13809;48.632;11.576;2023-07-29T19:06:02;23.30;44.10
26035;DHT22;13809;48.632;11.576;2023-07-29T19:11:07;23.30;44.20
26035;DHT22;13809;48.632;11.576;2023-07-29T19:16:10;23.30;44.40
26035;DHT22;13809;48.632;11.576;2023-07-29T19:21:14;23.40;44.40
26035;DHT22;13809;48.632;11.576;2023-07-29T19:26:21;23.50;44.20
26035;DHT22;13809;48.632;11.576;2023-07-29T19:31:25;23.50;44.40
26035;DHT22;13809;48.632;11.576;2023-07-29T19:36:28;23.50;44.40
26035;DHT22;13809;48.632;11.576;2023-07-29T19:41:36;23.40;44.40
26035;DHT22;13809;48.632;11.576;2023-07-29T19:46:39;23.50;44.40
26035;DHT22;13809;48.632;11.576;2023-07-29T19:51:43;23.50;44.20
26035;DHT22;13809;48.632;11.576;2023-07-29T19:56:47;23.50;44.20
26035;DHT22;13809;48.632;11.576;2023-07-29T20:01:50;23.50;44.20
26035;DHT22;13809;48.632;11.576;2023-07-29T20:06:54;23.50;44.20
26035;DHT22;13809;48.632;11.576;2023-07-29T20:12:00;23.50;44.10
26035;DHT22;13809;48.632;11.576;2023-07-29T20:17:05;23.50;44.20
26035;DHT22;13809;48.632;11.576;2023-07-29T20:22:11;23.50;44.30
26035;DHT22;13809;48.632;11.576;2023-07-29T20:27:16;23.50;44.10
26035;DHT22;13809;48.632;11.576;2023-07-29T20:32:20;23.40;44.20
26035;DHT22;13809;48.632;11.576;2023-07-29T20:37:23;23.50;44.30
26035;DHT22;13809;48.632;11.576;2023-07-29T20:42:28;23.50;44.20
26035;DHT22;13809;48.632;11.576;2023-07-29T20:47:33;23.40;44.10
26035;DHT22;13809;48.632;11.576;2023-07-29T20:52:38;23.40;44.30
26035;DHT22;13809;48.632;11.576;2023-07-29T20:57:43;23.40;44.40
26035;DHT22;13809;48.632;11.576;2023-07-29T21:02:46;23.40;44.40
26035;DHT22;13809;48.632;11.576;2023-07-29T21:07:50;23.50;44.20
26035;DHT22;13809;48.632;11.576;2023-07-29T21:12:56;23.40;44.20
26035;DHT22;13809;48.632;11.576;2023-07-29T21:18:00;23.40;44.70
26035;DHT22;13809;48.632;11.576;2023-07-29T21:23:05;23.30;44.60
26035;DHT22;13809;48.632;11.576;2023-07-29T21:28:10;23.30;44.60
26035;DHT22;13809;48.632;11.576;2023-07-29T21:33:14;23.30;44.70
26035;DHT22;13809;48.632;11.576;2023-07-29T21:38:17;23.30;44.60
26035;DHT22;13809;48.632;11.576;2023-07-29T21:43:29;23.30;44.80
26035;DHT22;13809;48.632;11.576;2023-07-29T21:48:32;23.20;44.90
26035;DHT22;13809;48.632;11.576;2023-07-29T21:53:35;23.20;44.80
26035;DHT22;13809;48.632;11.576;2023-07-29T21:58:40;23.10;45.00
26035;DHT22;13809;48.632;11.576;2023-07-29T22:03:43;23.10;45.20
26035;DHT22;13809;48.632;11.576;2023-07-29T22:08:46;23.10;45.20
26035;DHT22;13809;48.632;11.576;2023-07-29T22:13:52;23.10;45.40
26035;DHT22;13809;48.632;11.576;2023-07-29T22:18:56;23.10;45.60
26035;DHT22;13809;48.632;11.576;2023-07-29T22:23:59;23.10;45.40
26035;DHT22;13809;48.632;11.576;2023-07-29T22:29:03;23.10;45.40
26035;DHT22;13809;48.632;11.576;2023-07-29T22:34:07;23.10;45.60
26035;DHT22;13809;48.632;11.576;2023-07-29T22:39:10;23.00;45.60
26035;DHT22;13809;48.632;11.576;2023-07-29T22:44:14;22.90;45.50
26035;DHT22;13809;48.632;11.576;2023-07-29T22:49:17;22.90;45.70
26035;DHT22;13809;48.632;11.576;2023-07-29T22:54:21;22.90;45.60
26035;DHT22;13809;48.632;11.576;2023-07-29T22:59:25;22.80;45.60
26035;DHT22;13809;48.632;11.576;2023-07-29T23:04:28;22.80;45.80
26035;DHT22;13809;48.632;11.576;2023-07-29T23:09:31;22.80;45.60
26035;DHT22;13809;48.632;11.576;2023-07-29T23:14:36;22.80;45.80
26035;DHT22;13809;48.632;11.576;2023-07-29T23:19:39;22.80;46.00
26035;DHT22;13809;48.632;11.576;2023-07-29T23:24:42;22.80;45.60
26035;DHT22;13809;48.632;11.576;2023-07-29T23:29:47;22.80;45.70
26035;DHT22;13809;48.632;11.576;2023-07-29T23:34:50;22.80;46.00
26035;DHT22;13809;48.632;11.576;2023-07-29T23:39:53;22.80;45.80
26035;DHT22;13809;48.632;11.576;2023-07-29T23:44:58;22.80;46.40
26035;DHT22;13809;48.632;11.576;2023-07-29T23:50:01;22.80;45.80
26035;DHT22;13809;48.632;11.576;2023-07-29T23:55:06;22.80;45.70
